createdAt,value
2018-02-22T00:02:19.586Z,44.50
2018-02-22T00:04:47.074Z,47.07
2018-02-22T00:07:14.863Z,46.20
2018-02-22T00:09:42.356Z,44.07
2018-02-22T00:12:09.832Z,43.53
2018-02-22T00:14:37.310Z,47.30
2018-02-22T00:17:04.790Z,47.60
2018-02-22T00:19:32.283Z,47.17
2018-02-22T00:21:59.764Z,38.13
2018-02-22T00:24:27.256Z,49.17
2018-02-22T00:26:55.515Z,44.03
2018-02-22T00:29:22.995Z,39.87
2018-02-22T00:31:50.483Z,39.80
2018-02-22T00:34:18.758Z,42.57
2018-02-22T00:36:46.265Z,41.97
2018-02-22T00:39:13.955Z,43.93
2018-02-22T00:41:42.207Z,45.13
2018-02-22T00:44:09.682Z,44.13
2018-02-22T00:46:37.939Z,43.83
2018-02-22T00:49:05.423Z,44.37
2018-02-22T00:51:33.681Z,42.17
2018-02-22T00:54:01.943Z,40.37
2018-02-22T00:56:29.453Z,45.97
2018-02-22T00:58:56.943Z,43.90
2018-02-22T01:01:24.534Z,42.93
2018-02-22T01:03:52.802Z,47.13
2018-02-22T01:06:20.296Z,40.30
2018-02-22T01:08:47.808Z,44.00
2018-02-22T01:11:15.285Z,49.53
2018-02-22T01:13:43.550Z,39.07
2018-02-22T01:16:11.812Z,42.40
2018-02-22T01:18:39.295Z,36.67
2018-02-22T01:21:07.534Z,41.93
2018-02-22T01:23:35.039Z,48.47
2018-02-22T01:26:03.506Z,42.83
2018-02-22T01:28:31.764Z,41.80
2018-02-22T01:30:59.249Z,40.77
2018-02-22T01:33:26.707Z,41.07
2018-02-22T01:35:54.206Z,46.47
2018-02-22T01:38:21.689Z,44.13
2018-02-22T01:40:49.946Z,43.87
2018-02-22T01:43:17.422Z,46.90
2018-02-22T01:45:45.695Z,43.17
2018-02-22T01:48:13.165Z,47.57
2018-02-22T01:50:41.406Z,44.17
2018-02-22T01:53:08.907Z,43.33
2018-02-22T01:55:36.412Z,40.57
2018-02-22T01:58:03.883Z,46.93
2018-02-22T02:00:31.382Z,48.07
2018-02-22T02:02:58.862Z,40.10
2018-02-22T02:05:26.365Z,43.17
2018-02-22T02:07:54.642Z,43.37
2018-02-22T02:10:22.906Z,42.63
2018-02-22T02:12:50.408Z,43.20
2018-02-22T02:15:17.899Z,48.33
2018-02-22T02:17:45.402Z,43.37
2018-02-22T02:20:12.885Z,38.97
2018-02-22T02:22:40.362Z,41.73
2018-02-22T02:25:07.855Z,46.13
2018-02-22T02:27:35.343Z,41.80
2018-02-22T02:30:02.826Z,44.13
2018-02-22T02:32:30.335Z,44.93
2018-02-22T02:34:57.839Z,36.47
2018-02-22T02:37:25.304Z,40.73
2018-02-22T02:39:52.790Z,36.87
2018-02-22T02:42:20.272Z,41.80
2018-02-22T02:44:47.752Z,44.07
2018-02-22T02:47:15.241Z,31.63
2018-02-22T02:49:43.516Z,42.20
2018-02-22T02:52:10.996Z,38.17
2018-02-22T02:54:39.253Z,45.37
2018-02-22T02:57:06.751Z,43.10
2018-02-22T02:59:34.246Z,38.17
2018-02-22T03:02:01.823Z,43.63
2018-02-22T03:04:29.607Z,41.00
2018-02-22T03:06:57.875Z,45.00
2018-02-22T03:09:26.129Z,43.80
2018-02-22T03:11:53.615Z,45.77
2018-02-22T03:14:21.869Z,46.97
2018-02-22T03:16:49.336Z,44.50
2018-02-22T03:19:17.590Z,45.37
2018-02-22T03:21:46.601Z,44.67
2018-02-22T03:24:14.845Z,40.97
2018-02-22T03:26:42.343Z,47.53
2018-02-22T03:29:10.603Z,39.70
2018-02-22T03:31:38.859Z,44.00
2018-02-22T03:34:06.340Z,41.90
2018-02-22T03:36:34.603Z,42.23
2018-02-22T03:39:02.073Z,41.93
2018-02-22T03:41:30.325Z,43.83
2018-02-22T03:43:57.807Z,39.67
2018-02-22T03:46:26.050Z,40.83
2018-02-22T03:48:53.547Z,41.80
2018-02-22T03:51:21.029Z,39.03
2018-02-22T03:53:48.512Z,43.93
2018-02-22T03:56:16.024Z,43.83
2018-02-22T03:58:43.757Z,48.33
2018-02-22T04:01:11.250Z,45.10
2018-02-22T04:03:38.743Z,46.03
2018-02-22T04:06:06.225Z,44.47
2018-02-22T04:08:34.483Z,48.50
2018-02-22T04:11:01.969Z,41.30
2018-02-22T04:13:30.215Z,43.73
2018-02-22T04:15:57.739Z,43.93
2018-02-22T04:18:25.243Z,43.40
2018-02-22T04:20:53.497Z,42.77
2018-02-22T04:23:20.983Z,48.10
2018-02-22T04:25:49.236Z,46.73
2018-02-22T04:28:17.507Z,38.83
2018-02-22T04:30:44.988Z,44.40
2018-02-22T04:33:12.500Z,41.43
2018-02-22T04:35:39.993Z,37.83
2018-02-22T04:38:07.562Z,38.90
2018-02-22T04:40:35.799Z,39.00
2018-02-22T04:43:03.300Z,42.43
2018-02-22T04:45:31.548Z,44.67
2018-02-22T04:47:59.051Z,39.83
2018-02-22T04:50:26.522Z,42.10
2018-02-22T04:52:54.023Z,36.50
2018-02-22T04:55:21.494Z,33.77
2018-02-22T04:57:49.733Z,39.87
2018-02-22T05:00:17.197Z,32.80
2018-02-22T05:02:46.339Z,35.47
2018-02-22T05:05:13.980Z,34.67
2018-02-22T05:07:42.300Z,36.87
2018-02-22T05:10:09.796Z,33.30
2018-02-22T05:12:37.631Z,32.87
2018-02-22T05:15:05.925Z,33.57
2018-02-22T05:17:33.390Z,34.00
2018-02-22T05:20:01.656Z,33.30
2018-02-22T05:22:29.146Z,32.80
2018-02-22T05:24:56.660Z,25.10
2018-02-22T05:27:24.159Z,33.37
2018-02-22T05:29:51.661Z,27.87
2018-02-22T05:32:19.149Z,28.43
2018-02-22T05:34:47.420Z,31.20
2018-02-22T05:37:14.903Z,30.03
2018-02-22T05:39:42.389Z,33.10
2018-02-22T05:42:09.884Z,30.90
2018-02-22T05:44:37.748Z,35.23
2018-02-22T05:47:05.327Z,31.87
2018-02-22T05:49:33.687Z,32.43
2018-02-22T05:52:01.187Z,34.70
2018-02-22T05:54:28.704Z,32.57
2018-02-22T05:56:56.179Z,27.97
2018-02-22T05:59:24.423Z,33.93
2018-02-22T06:01:51.944Z,32.00
2018-02-22T06:04:19.437Z,24.67
2018-02-22T06:06:47.785Z,31.03
2018-02-22T06:09:16.087Z,27.97
2018-02-22T06:11:43.600Z,25.40
2018-02-22T06:14:11.087Z,29.20
2018-02-22T06:16:38.606Z,27.77
2018-02-22T06:19:06.084Z,25.97
2018-02-22T06:21:33.569Z,28.33
2018-02-22T06:24:01.085Z,22.53
2018-02-22T06:26:28.572Z,32.17
2018-02-22T06:28:56.047Z,29.27
2018-02-22T06:31:23.552Z,30.37
2018-02-22T06:33:51.019Z,30.17
2018-02-22T06:36:18.525Z,32.23
2018-02-22T06:38:46.768Z,35.67
2018-02-22T06:41:14.254Z,33.13
2018-02-22T06:43:41.722Z,32.50
2018-02-22T06:46:09.988Z,33.00
2018-02-22T06:48:38.261Z,31.90
2018-02-22T06:51:06.521Z,39.23
2018-02-22T06:53:36.079Z,39.77
2018-02-22T06:56:03.562Z,33.93
2018-02-22T06:58:31.168Z,37.13
2018-02-22T07:00:59.460Z,36.40
2018-02-22T07:03:26.944Z,35.40
2018-02-22T07:05:54.443Z,37.87
2018-02-22T07:08:24.308Z,32.03
2018-02-22T07:10:51.779Z,33.60
2018-02-22T07:13:19.296Z,31.10
2018-02-22T07:15:46.792Z,30.70
2018-02-22T07:18:14.277Z,28.53
2018-02-22T07:20:41.744Z,29.97
2018-02-22T07:23:16.788Z,25.97
2018-02-22T07:25:37.453Z,30.70
2018-02-22T07:28:05.779Z,28.53
2018-02-22T07:30:34.023Z,31.10
2018-02-22T07:33:01.550Z,25.80
2018-02-22T07:35:29.026Z,25.17
2018-02-22T07:37:56.505Z,24.77
2018-02-22T07:40:23.975Z,24.17
2018-02-22T07:42:51.487Z,25.60
2018-02-22T07:45:18.993Z,20.27
2018-02-22T07:47:46.500Z,25.07
2018-02-22T07:50:14.005Z,21.27
2018-02-22T07:52:41.468Z,19.60
2018-02-22T07:55:08.954Z,21.03
2018-02-22T07:57:36.418Z,21.70
2018-02-22T08:00:03.956Z,18.57
2018-02-22T08:02:31.399Z,18.70
2018-02-22T08:04:58.886Z,19.80
2018-02-22T08:07:26.371Z,21.57
2018-02-22T08:09:54.631Z,17.80
2018-02-22T08:12:22.889Z,16.07
2018-02-22T08:14:50.384Z,19.97
2018-02-22T08:17:17.880Z,20.23
2018-02-22T08:19:46.502Z,21.20
2018-02-22T08:22:15.181Z,19.07
2018-02-22T08:24:42.657Z,18.33
2018-02-22T08:27:10.921Z,16.67
2018-02-22T08:29:38.644Z,15.30
2018-02-22T08:32:06.175Z,16.57
2018-02-22T08:34:33.658Z,21.27
2018-02-22T08:37:01.157Z,20.10
2018-02-22T08:39:29.094Z,20.97
2018-02-22T08:41:56.674Z,15.00
2018-02-22T08:44:24.912Z,15.50
2018-02-22T08:46:52.403Z,16.07
2018-02-22T08:49:20.657Z,15.73
2018-02-22T08:51:48.153Z,15.83
2018-02-22T08:54:15.646Z,16.93
2018-02-22T08:56:43.128Z,17.40
2018-02-22T08:59:10.602Z,18.03
2018-02-22T09:01:38.869Z,19.47
2018-02-22T09:04:06.344Z,38.50
2018-02-22T09:06:34.615Z,16.27
2018-02-22T09:09:02.893Z,31.50
2018-02-22T09:11:31.179Z,12.37
2018-02-22T09:13:58.640Z,14.40
2018-02-22T09:16:26.120Z,17.57
2018-02-22T09:18:53.599Z,14.27
2018-02-22T09:21:21.104Z,12.10
2018-02-22T09:23:48.588Z,16.77
2018-02-22T09:26:16.081Z,19.20
2018-02-22T09:28:43.570Z,19.17
2018-02-22T09:31:11.073Z,12.93
2018-02-22T09:33:38.564Z,21.97
2018-02-22T09:36:06.808Z,19.30
2018-02-22T09:38:34.302Z,15.03
2018-02-22T09:41:02.562Z,19.00
2018-02-22T09:43:30.817Z,14.60
2018-02-22T09:45:58.318Z,13.97
2018-02-22T09:48:25.821Z,19.50
2018-02-22T09:50:53.303Z,18.10
2018-02-22T09:53:20.783Z,13.67
2018-02-22T09:55:49.100Z,22.23
2018-02-22T09:58:16.590Z,17.67
2018-02-22T10:00:44.162Z,14.67
2018-02-22T10:03:12.427Z,15.77
2018-02-22T10:05:40.688Z,16.17
2018-02-22T10:08:08.207Z,14.30
2018-02-22T10:10:35.676Z,18.07
2018-02-22T10:13:03.178Z,13.67
2018-02-22T10:15:31.565Z,15.37
2018-02-22T10:18:00.073Z,17.10
2018-02-22T10:20:27.570Z,12.30
2018-02-22T10:22:55.046Z,15.30
2018-02-22T10:25:23.463Z,15.43
2018-02-22T10:27:51.100Z,16.43
2018-02-22T10:30:19.345Z,18.37
2018-02-22T10:32:46.849Z,16.43
2018-02-22T10:35:14.334Z,17.50
2018-02-22T10:37:41.842Z,18.27
2018-02-22T10:40:10.077Z,15.50
2018-02-22T10:42:37.571Z,15.60
2018-02-22T10:45:05.820Z,15.97
2018-02-22T10:47:33.311Z,12.03
2018-02-22T10:50:00.778Z,12.63
2018-02-22T10:52:28.662Z,15.20
2018-02-22T10:54:56.159Z,14.90
2018-02-22T10:57:23.610Z,13.70
2018-02-22T10:59:51.114Z,15.40
2018-02-22T11:02:24.209Z,13.67
2018-02-22T11:04:51.699Z,17.97
2018-02-22T11:07:19.272Z,17.57
2018-02-22T11:09:46.809Z,23.33
2018-02-22T11:12:14.304Z,24.70
2018-02-22T11:14:42.575Z,19.43
2018-02-22T11:17:10.827Z,23.03
2018-02-22T11:19:39.129Z,18.47
2018-02-22T11:22:07.428Z,16.40
2018-02-22T11:24:34.904Z,18.63
2018-02-22T11:27:02.400Z,19.53
2018-02-22T11:29:29.891Z,12.97
2018-02-22T11:31:57.440Z,17.50
2018-02-22T11:34:25.712Z,16.47
2018-02-22T11:36:53.960Z,16.80
2018-02-22T11:39:21.435Z,17.43
2018-02-22T11:41:48.934Z,20.17
2018-02-22T11:44:16.406Z,15.73
2018-02-22T11:46:43.887Z,19.63
2018-02-22T11:49:11.359Z,19.40
2018-02-22T11:51:39.617Z,19.40
2018-02-22T11:54:07.864Z,18.33
2018-02-22T11:56:35.356Z,20.63
2018-02-22T11:59:02.831Z,21.77
2018-02-22T12:01:30.318Z,23.60
2018-02-22T12:03:57.816Z,19.13
2018-02-22T12:06:25.291Z,16.07
2018-02-22T12:08:53.535Z,16.17
2018-02-22T12:11:21.036Z,16.73
2018-02-22T12:13:50.074Z,19.43
2018-02-22T12:16:17.558Z,23.87
2018-02-22T12:18:45.817Z,21.33
2018-02-22T12:21:13.332Z,15.20
2018-02-22T12:23:40.874Z,22.33
2018-02-22T12:26:08.356Z,24.87
2018-02-22T12:28:35.862Z,19.60
2018-02-22T12:31:04.110Z,18.70
2018-02-22T12:33:31.621Z,17.03
2018-02-22T12:35:59.106Z,16.17
2018-02-22T12:38:26.605Z,28.23
2018-02-22T12:40:54.852Z,17.70
2018-02-22T12:43:22.347Z,20.77
2018-02-22T12:45:50.579Z,17.47
2018-02-22T12:48:18.075Z,18.37
2018-02-22T12:50:49.123Z,16.63
2018-02-22T12:53:16.709Z,12.93
2018-02-22T12:55:44.287Z,18.67
2018-02-22T12:58:11.893Z,19.40
2018-02-22T13:00:39.401Z,18.53
2018-02-22T13:03:06.899Z,19.00
2018-02-22T13:05:35.159Z,14.73
2018-02-22T13:08:02.704Z,22.73
2018-02-22T13:10:30.238Z,19.43
2018-02-22T13:12:57.711Z,17.43
2018-02-22T13:15:25.272Z,18.40
2018-02-22T13:17:52.749Z,16.60
2018-02-22T13:20:20.276Z,16.40
2018-02-22T13:22:47.746Z,17.27
2018-02-22T13:25:15.233Z,16.87
2018-02-22T13:27:43.479Z,17.53
2018-02-22T13:30:10.967Z,18.93
2018-02-22T13:32:50.345Z,19.20
2018-02-22T13:35:19.188Z,16.47
2018-02-22T13:40:47.234Z,16.80
2018-02-22T13:43:15.509Z,16.57
2018-02-22T13:45:42.986Z,21.87
2018-02-22T13:48:10.459Z,16.10
2018-02-22T13:50:50.759Z,17.60
2018-02-22T13:53:18.266Z,14.60
2018-02-22T13:55:46.519Z,17.93
2018-02-22T13:58:14.000Z,15.20
2018-02-22T14:00:54.105Z,13.87
2018-02-22T14:03:21.583Z,16.40
2018-02-22T14:05:49.059Z,15.93
2018-02-22T14:08:29.129Z,13.60
2018-02-22T14:10:57.444Z,12.60
2018-02-22T14:13:24.953Z,16.47
2018-02-22T14:15:54.994Z,12.83
2018-02-22T14:18:22.642Z,11.60
2018-02-22T14:20:50.141Z,14.30
2018-02-22T14:23:17.840Z,13.20
2018-02-22T14:25:46.089Z,14.00
2018-02-22T14:28:13.571Z,15.37
2018-02-22T14:30:41.829Z,11.60
2018-02-22T14:33:10.134Z,21.53
2018-02-22T14:35:37.743Z,13.77
2018-02-22T14:38:05.223Z,12.87
2018-02-22T14:40:32.684Z,14.67
2018-02-22T14:43:00.178Z,12.97
2018-02-22T14:45:27.669Z,13.97
2018-02-22T14:47:55.209Z,24.20
2018-02-22T14:50:22.700Z,16.07
2018-02-22T14:52:50.202Z,15.93
2018-02-22T14:55:17.722Z,9.33
2018-02-22T14:57:45.960Z,14.10
2018-02-22T15:00:13.446Z,11.00
2018-02-22T15:02:41.045Z,15.47
2018-02-22T15:05:09.071Z,14.07
2018-02-22T15:07:38.044Z,14.77
2018-02-22T15:10:05.522Z,31.83
2018-02-22T15:12:33.159Z,13.63
2018-02-22T15:15:00.676Z,13.73
2018-02-22T15:17:28.193Z,12.67
2018-02-22T15:19:56.541Z,12.23
2018-02-22T15:22:24.032Z,14.33
2018-02-22T15:24:51.568Z,14.80
2018-02-22T15:27:19.078Z,17.70
2018-02-22T15:29:46.583Z,14.30
2018-02-22T15:32:14.112Z,14.80
2018-02-22T15:34:41.607Z,15.70
2018-02-22T15:37:09.085Z,15.30
2018-02-22T15:39:37.333Z,11.80
2018-02-22T15:42:04.806Z,12.87
2018-02-22T15:44:33.060Z,12.77
2018-02-22T15:47:00.557Z,14.83
2018-02-22T15:49:28.064Z,12.60
2018-02-22T15:51:55.534Z,16.33
2018-02-22T15:54:23.016Z,14.83
2018-02-22T15:56:51.266Z,16.60
2018-02-22T15:59:18.748Z,15.57
2018-02-22T16:01:46.982Z,13.90
2018-02-22T16:04:14.456Z,18.60
2018-02-22T16:06:41.939Z,11.50
2018-02-22T16:09:09.471Z,14.03
2018-02-22T16:11:36.960Z,16.47
2018-02-22T16:14:04.455Z,15.50
2018-02-22T16:16:31.940Z,14.30
2018-02-22T16:19:00.262Z,15.73
2018-02-22T16:21:27.746Z,16.10
2018-02-22T16:23:55.220Z,16.20
2018-02-22T16:26:22.714Z,14.97
2018-02-22T16:28:50.212Z,15.57
2018-02-22T16:31:17.732Z,18.23
2018-02-22T16:33:45.354Z,19.47
2018-02-22T16:36:12.842Z,18.50
2018-02-22T16:38:40.351Z,16.97
2018-02-22T16:41:07.817Z,19.50
2018-02-22T16:43:35.418Z,21.40
2018-02-22T16:46:02.947Z,20.90
2018-02-22T16:48:31.209Z,17.53
2018-02-22T16:50:58.830Z,21.60
2018-02-22T16:53:26.344Z,20.50
2018-02-22T16:55:54.603Z,22.70
2018-02-22T16:58:22.145Z,22.33
2018-02-22T17:00:49.656Z,20.03
2018-02-22T17:03:17.175Z,19.37
2018-02-22T17:05:44.723Z,25.20
2018-02-22T17:08:12.215Z,21.60
2018-02-22T17:10:40.475Z,18.37
2018-02-22T17:13:08.860Z,20.27
2018-02-22T17:15:36.363Z,22.13
2018-02-22T17:18:03.849Z,22.10
2018-02-22T17:20:31.386Z,21.10
2018-02-22T17:22:58.859Z,20.67
2018-02-22T17:25:25.933Z,23.70
2018-02-22T17:27:59.795Z,23.53
2018-02-22T17:30:33.029Z,18.63
2018-02-22T17:33:00.509Z,23.80
2018-02-22T17:35:32.653Z,28.80
2018-02-22T17:38:05.563Z,24.30
2018-02-22T17:40:35.600Z,21.43
2018-02-22T17:43:03.148Z,25.17
2018-02-22T17:45:30.693Z,25.93
2018-02-22T17:47:59.100Z,25.60
2018-02-22T17:50:26.589Z,26.77
2018-02-22T17:52:54.076Z,24.17
2018-02-22T17:55:21.868Z,21.20
2018-02-22T17:57:49.430Z,26.83
2018-02-22T18:00:16.923Z,21.07
2018-02-22T18:02:44.412Z,24.43
2018-02-22T18:05:11.917Z,21.00
2018-02-22T18:07:40.192Z,23.10
2018-02-22T18:10:07.717Z,27.03
2018-02-22T18:12:35.287Z,24.60
2018-02-22T18:15:02.839Z,24.50
2018-02-22T18:17:30.385Z,22.67
2018-02-22T18:19:57.900Z,27.40
2018-02-22T18:22:26.230Z,25.57
2018-02-22T18:24:53.756Z,26.87
2018-02-22T18:27:21.240Z,29.23
2018-02-22T18:29:48.773Z,30.70
2018-02-22T18:32:17.004Z,19.50
2018-02-22T18:34:44.543Z,28.63
2018-02-22T18:37:17.618Z,23.40
2018-02-22T18:39:45.126Z,24.77
2018-02-22T18:42:19.146Z,25.53
2018-02-22T18:44:53.459Z,29.07
2018-02-22T18:47:21.786Z,29.40
2018-02-22T18:49:49.282Z,26.30
2018-02-22T18:52:16.772Z,26.07
2018-02-22T18:54:44.313Z,29.33
2018-02-22T18:57:11.772Z,27.33
2018-02-22T18:59:39.542Z,24.27
2018-02-22T19:02:07.022Z,28.43
2018-02-22T19:04:34.578Z,29.47
2018-02-22T19:07:02.092Z,20.47
2018-02-22T19:09:30.360Z,27.77
2018-02-22T19:11:58.655Z,24.20
2018-02-22T19:14:26.160Z,20.40
2018-02-22T19:16:56.695Z,21.93
2018-02-22T19:19:24.181Z,27.30
2018-02-22T19:21:52.453Z,20.00
2018-02-22T19:24:20.709Z,28.60
2018-02-22T19:26:48.215Z,22.93
2018-02-22T19:29:15.699Z,24.83
2018-02-22T19:31:43.204Z,25.63
2018-02-22T19:34:10.726Z,26.33
2018-02-22T19:36:38.239Z,30.00
2018-02-22T19:39:05.802Z,24.60
2018-02-22T19:41:33.335Z,26.30
2018-02-22T19:44:01.028Z,21.10
2018-02-22T19:46:28.754Z,23.80
2018-02-22T19:48:57.002Z,26.93
2018-02-22T19:51:24.490Z,25.70
2018-02-22T19:53:52.928Z,26.80
2018-02-22T19:56:20.498Z,22.93
2018-02-22T19:58:48.990Z,21.97
2018-02-22T20:01:17.292Z,21.47
2018-02-22T20:03:44.840Z,22.00
2018-02-22T20:06:12.363Z,26.97
2018-02-22T20:08:39.924Z,18.60
2018-02-22T20:11:07.517Z,18.90
2018-02-22T20:13:35.043Z,23.57
2018-02-22T20:16:02.557Z,23.53
2018-02-22T20:18:30.056Z,22.70
2018-02-22T20:20:57.554Z,21.73
2018-02-22T20:23:25.079Z,22.07
2018-02-22T20:25:53.368Z,22.13
2018-02-22T20:28:21.676Z,21.63
2018-02-22T20:30:49.202Z,20.90
2018-02-22T20:33:17.224Z,20.87
2018-02-22T20:35:44.792Z,22.30
2018-02-22T20:38:12.345Z,19.67
2018-02-22T20:40:39.929Z,20.67
2018-02-22T20:43:07.491Z,20.57
2018-02-22T20:45:36.467Z,23.60
2018-02-22T20:48:04.111Z,26.70
2018-02-22T20:50:31.770Z,28.43
2018-02-22T20:52:59.349Z,22.37
2018-02-22T20:55:38.587Z,20.97
2018-02-22T20:58:06.992Z,20.00
2018-02-22T21:00:34.536Z,20.43
2018-02-22T21:03:02.794Z,23.33
2018-02-22T21:05:31.356Z,17.60
2018-02-22T21:08:02.007Z,15.57
2018-02-22T21:10:29.607Z,17.53
2018-02-22T21:12:57.160Z,19.80
2018-02-22T21:15:24.658Z,19.10
2018-02-22T21:17:52.203Z,19.20
2018-02-22T21:20:19.716Z,20.10
2018-02-22T21:22:47.993Z,20.30
2018-02-22T21:25:15.492Z,17.37
2018-02-22T21:27:42.995Z,22.13
2018-02-22T21:30:11.259Z,22.20
2018-02-22T21:32:39.539Z,20.60
2018-02-22T21:35:07.895Z,19.30
2018-02-22T21:37:35.394Z,17.53
2018-02-22T21:40:02.953Z,18.43
2018-02-22T21:42:30.440Z,20.30
2018-02-22T21:44:57.976Z,16.10
2018-02-22T21:47:25.469Z,19.80
2018-02-22T21:49:53.012Z,16.57
2018-02-22T21:52:20.509Z,18.80
2018-02-22T21:54:48.743Z,15.10
2018-02-22T21:57:16.235Z,15.63
2018-02-22T21:59:43.777Z,12.27
2018-02-22T22:02:11.251Z,15.20
2018-02-22T22:04:39.638Z,14.37
2018-02-22T22:07:07.053Z,13.73
2018-02-22T22:09:34.590Z,15.83
2018-02-22T22:12:02.089Z,16.10
2018-02-22T22:14:30.360Z,20.93
2018-02-22T22:16:57.848Z,14.77
2018-02-22T22:19:25.377Z,18.53
2018-02-22T22:21:52.883Z,17.27
2018-02-22T22:24:20.385Z,15.80
2018-02-22T22:26:47.875Z,15.00
2018-02-22T22:29:15.397Z,14.97
2018-02-22T22:31:42.939Z,15.37
2018-02-22T22:34:10.420Z,13.43
2018-02-22T22:36:38.725Z,16.10
2018-02-22T22:39:06.205Z,16.40
2018-02-22T22:41:33.715Z,12.67
2018-02-22T22:44:02.039Z,16.60
2018-02-22T22:46:30.305Z,13.27
2018-02-22T22:48:57.793Z,14.00
2018-02-22T22:51:25.360Z,11.37
2018-02-22T22:53:52.887Z,15.70
2018-02-22T22:56:20.419Z,15.43
2018-02-22T22:58:47.932Z,16.07
2018-02-22T23:01:15.492Z,11.67
2018-02-22T23:03:43.084Z,16.30
2018-02-22T23:06:10.788Z,14.73
2018-02-22T23:08:38.328Z,13.00
2018-02-22T23:11:05.916Z,17.47
2018-02-22T23:13:33.630Z,16.87
2018-02-22T23:16:01.154Z,14.03
2018-02-22T23:18:29.180Z,12.23
2018-02-22T23:20:56.674Z,14.23
2018-02-22T23:23:24.225Z,19.83
2018-02-22T23:25:51.810Z,14.53
2018-02-22T23:28:19.984Z,18.17
2018-02-22T23:30:48.252Z,22.60
2018-02-22T23:33:16.630Z,17.93
2018-02-22T23:35:44.117Z,19.53
2018-02-22T23:38:11.615Z,20.67
2018-02-22T23:40:51.871Z,17.17
2018-02-22T23:43:19.351Z,18.47
2018-02-22T23:45:47.578Z,21.47
2018-02-22T23:48:15.128Z,23.07
2018-02-22T23:50:42.640Z,23.80
2018-02-22T23:53:10.112Z,25.00
2018-02-22T23:55:38.383Z,22.60
2018-02-22T23:58:06.641Z,19.63
